Data for 06/06/2008

Time Sea-Level Adjusted Pressure Absolute Pressure Temperature Relative Humidity Dew Point   
(mb) (inHg) (mb) (inHg) (C) (F) (%) (C) (F)
00:05 1008 29.77 837 24.72 11.1 51.9 65 4.8 40.7
00:10 1008 29.77 837 24.72 10.9 51.7 67 5 41
00:15 1008 29.77 837 24.72 11 51.9 67 5.1 41.1
00:20 1008 29.77 837 24.72 11 51.9 67 5.2 41.3
00:25 1008 29.77 837 24.72 11 51.9 68 5.5 41.9
00:30 1008 29.77 837 24.72 11 51.9 70 5.8 42.4
00:35 1008 29.77 837 24.72 10.9 51.7 72 6 42.9
00:40 1008 29.77 837 24.72 10.6 51.1 73 6 42.8
00:45 1008 29.77 837 24.72 10.5 50.8 73 5.8 42.4
00:50 1008 29.77 837 24.72 10.5 50.8 72 5.6 42.1
00:55 1008 29.77 837 24.72 10.5 50.8 72 5.7 42.2
01:00 1008 29.77 837 24.72 10.4 50.7 73 5.8 42.4
01:05 1008 29.77 837 24.72 10.3 50.6 73 5.7 42.2
01:10 1007 29.74 837 24.72 10.4 50.7 71 5.4 41.8
01:15 1007 29.74 837 24.72 10.4 50.8 71 5.5 41.9
01:20 1007 29.74 837 24.72 10.4 50.7 71 5.5 41.8
01:25 1007 29.74 837 24.72 10.4 50.7 71 5.4 41.8
01:30 1007 29.74 837 24.72 10.4 50.7 71 5.5 41.9
01:35 1007 29.74 837 24.72 10.4 50.7 71 5.4 41.8
01:40 1007 29.74 837 24.72 10.3 50.5 72 5.5 42
01:45 1007 29.74 837 24.72 10.2 50.3 73 5.7 42.2
01:50 1008 29.77 837 24.72 10.1 50.1 74 5.7 42.3
01:55 1008 29.77 837 24.72 9.9 49.9 75 5.7 42.3
02:00 1008 29.77 837 24.72 9.9 49.9 76 5.9 42.6
02:05 1008 29.77 837 24.72 10.1 50.1 76 6.1 43
02:10 1008 29.77 837 24.72 10.3 50.5 78 6.5 43.8
02:15 1008 29.77 837 24.72 10.2 50.3 83 7.4 45.3
02:20 1008 29.77 838 24.75 9.6 49.3 88 7.8 46
02:25 1008 29.77 838 24.75 8.9 48 92 7.7 45.8
02:30 1008 29.77 838 24.75 8.3 46.9 94 7.4 45.4
02:35 1008 29.77 838 24.75 7.9 46.2 96 7.3 45.2
02:40 1008 29.77 838 24.75 7.7 45.8 97 7.2 45
02:45 1008 29.77 838 24.75 7.4 45.4 98 7.1 44.7
02:50 1008 29.77 838 24.75 7.3 45.1 98 7 44.6
02:55 1008 29.77 838 24.75 7.1 44.7 98 6.8 44.3
03:00 1008 29.77 837 24.72 6.8 44.2 100 6.7 44.1
03:05 1008 29.77 837 24.72 6.7 44.1 100 6.7 44.1
03:10 1008 29.77 837 24.72 6.6 43.9 100 6.6 43.9
03:15 1008 29.77 837 24.72 6.5 43.7 100 6.5 43.7
03:20 1008 29.77 837 24.72 6.4 43.6 100 6.4 43.6
03:25 1008 29.77 837 24.72 6.5 43.7 100 6.5 43.7
03:30 1008 29.77 837 24.72 6.5 43.6 100 6.5 43.6
03:35 1008 29.77 837 24.72 6.5 43.7 100 6.5 43.7
03:40 1008 29.77 837 24.72 6.8 44.2 100 6.8 44.2
03:45 1008 29.77 837 24.72 6.8 44.3 100 6.8 44.3
03:50 1008 29.77 837 24.72 6.9 44.4 100 6.9 44.4
03:55 1007 29.74 837 24.72 7 44.6 100 7 44.5
04:00 1007 29.74 837 24.72 7 44.6 99 6.9 44.4
04:05 1007 29.74 837 24.72 6.9 44.4 99 6.8 44.2
04:10 1007 29.74 837 24.72 6.8 44.3 99 6.7 44.1
04:15 1007 29.74 836 24.69 6.8 44.2 99 6.7 44.1
04:20 1007 29.74 836 24.69 6.7 44 100 6.6 43.9
04:25 1007 29.74 836 24.69 6.6 43.9 100 6.6 43.9
04:30 1007 29.74 836 24.69 6.6 43.9 100 6.6 43.9
04:35 1007 29.74 836 24.69 6.7 44 100 6.6 44
04:40 1007 29.74 836 24.69 6.8 44.2 100 6.8 44.2
04:45 1007 29.74 836 24.69 6.8 44.2 100 6.7 44.1
04:50 1007 29.74 836 24.69 6.7 44.1 100 6.7 44
04:55 1007 29.74 836 24.69 7 44.5 100 6.9 44.4
05:00 1007 29.74 836 24.69 7.2 44.9 99 7.1 44.8
05:05 1007 29.74 836 24.69 7.2 44.9 99 7.1 44.7
05:10 1007 29.74 836 24.69 7.1 44.8 99 7 44.6
05:15 1007 29.74 836 24.69 7.1 44.7 99 6.9 44.5
05:20 1007 29.74 836 24.69 7.1 44.7 99 6.9 44.5
05:25 1007 29.74 836 24.69 7.1 44.8 99 7 44.5
05:30 1007 29.74 836 24.69 6.8 44.2 100 6.8 44.2
05:35 1007 29.74 836 24.69 6.6 44 100 6.6 44
05:40 1007 29.74 836 24.69 6.6 43.9 100 6.6 43.9
05:45 1007 29.74 836 24.69 6.6 43.9 100 6.6 43.9
05:50 1007 29.74 836 24.69 6.6 44 100 6.6 44
05:55 1007 29.74 836 24.69 6.8 44.2 100 6.8 44.2
06:00 1007 29.74 836 24.69 7 44.6 100 7 44.6
06:05 1007 29.74 837 24.72 7 44.6 100 7 44.6
06:10 1007 29.74 837 24.72 6.9 44.4 100 6.9 44.4
06:15 1008 29.77 837 24.72 6.8 44.3 100 6.8 44.3
06:20 1008 29.77 837 24.72 6.7 44 163 13.9 57.1
06:25 1008 29.77 837 24.72 6.6 43.9 164 13.9 57
06:30 1008 29.77 837 24.72 6.5 43.7 164 13.8 56.8
06:35 1008 29.77 837 24.72 6.5 43.7 164 13.8 56.8
06:40 1008 29.77 837 24.72 6.5 43.7 164 13.8 56.9
06:45 1008 29.77 837 24.72 6.6 43.8 164 13.9 57
06:50 1008 29.77 837 24.72 6.7 44 164 14 57.1
06:55 1008 29.77 837 24.72 6.7 44 164 14 57.2
07:00 1008 29.77 837 24.72 6.7 44.1 164 14 57.2
07:05 1007 29.74 837 24.72 6.8 44.2 164 14.1 57.3
07:10 1007 29.74 837 24.72 6.9 44.4 164 14.2 57.6
07:15 1007 29.74 837 24.72 6.7 44.1 164 14 57.3
07:20 1007 29.74 837 24.72 6.5 43.8 164 13.8 56.9
07:25 1007 29.74 837 24.72 6.4 43.6 164 13.7 56.7
07:30 1007 29.74 837 24.72 6.4 43.6 164 13.7 56.7
07:35 1007 29.74 837 24.72 6.5 43.6 164 13.8 56.8
07:40 1007 29.74 837 24.72 6.7 44 164 14 57.2
07:45 1007 29.74 837 24.72 6.7 44.1 164 14.1 57.3
07:50 1007 29.74 837 24.72 6.8 44.2 164 14.1 57.4
07:55 1007 29.74 837 24.72 7 44.5 164 14.3 57.7
08:00 1007 29.74 837 24.72 7.2 44.9 164 14.5 58.1
08:05 1007 29.74 837 24.72 7.5 45.4 164 14.8 58.7
08:10 1007 29.74 837 24.72 7.4 45.4 164 14.8 58.6
08:15 1007 29.74 837 24.72 7.3 45.2 164 14.7 58.4
08:20 1007 29.74 837 24.72 7.6 45.8 164 15 59
08:25 1007 29.74 837 24.72 7.9 46.3 164 15.3 59.5
08:30 1007 29.74 837 24.72 7.8 46 164 15.1 59.3
08:35 1008 29.77 837 24.72 7.5 45.5 164 14.9 58.8
08:40 1008 29.77 837 24.72 5.7 42.2 164 13 55.3
08:45 1008 29.77 837 24.72 4.6 40.3 164 11.9 53.3
08:50 1008 29.77 837 24.72 4.3 39.7 164 11.5 52.7
08:55 1008 29.77 837 24.72 4.3 39.8 164 11.6 52.8
09:00 1008 29.77 837 24.72 4.6 40.2 164 11.8 53.2
09:05 1008 29.77 837 24.72 4.8 40.7 164 12 53.7
09:10 1008 29.77 837 24.72 4.9 40.7 164 12.1 53.8
09:15 1008 29.77 838 24.75 4.9 40.7 164 12.1 53.8
09:20 1009 29.8 838 24.75 4.8 40.6 164 12 53.6
09:25 1009 29.8 838 24.75 4.4 40 164 11.7 53
09:30 1009 29.8 838 24.75 4 39.2 164 11.2 52.2
09:35 1009 29.8 838 24.75 3.7 38.7 164 10.9 51.7
09:40 1009 29.8 838 24.75 4.1 39.4 164 11.3 52.3
09:45 1009 29.8 838 24.75 4.4 39.8 164 11.6 52.8
09:50 1009 29.8 838 24.75 4.4 39.8 164 11.6 52.8
09:55 1009 29.8 838 24.75 4.5 40.1 164 11.7 53.1
10:00 1009 29.8 838 24.75 4.7 40.4 164 11.9 53.5
10:05 1009 29.8 838 24.75 4.7 40.4 164 11.9 53.5
10:10 1009 29.8 838 24.75 4.6 40.2 164 11.8 53.2
10:15 1009 29.8 838 24.75 4.5 40.2 164 11.8 53.2
10:20 1009 29.8 838 24.75 4.7 40.4 164 11.9 53.5
10:25 1009 29.8 838 24.75 4.9 40.8 164 12.1 53.9
10:30 1009 29.8 838 24.75 5.1 41.1 164 12.3 54.1
10:35 1009 29.8 838 24.75 5 41 164 12.2 54
10:40 1009 29.8 838 24.75 5 40.9 164 12.2 54
10:45 1009 29.8 838 24.75 5 41.1 164 12.3 54.1
10:50 1009 29.8 838 24.75 5.1 41.2 164 12.4 54.2
10:55 1009 29.8 838 24.75 5.2 41.4 164 12.5 54.4
11:00 1009 29.8 838 24.75 5.2 41.4 164 12.5 54.4
11:05 1009 29.8 838 24.75 5.2 41.3 164 12.5 54.4
11:10 1009 29.8 838 24.75 5.6 42.1 164 12.9 55.1
11:15 1009 29.8 838 24.75 6.1 42.9 164 13.3 56
11:20 1009 29.8 838 24.75 6.1 43 164 13.4 56.1
11:25 1009 29.8 838 24.75 5.9 42.7 164 13.2 55.8
11:30 1009 29.8 838 24.75 6.2 43.2 164 13.5 56.3
11:35 1009 29.8 838 24.75 6 42.7 93 4.9 40.8
11:40 1009 29.8 838 24.75 6 42.7 92 4.8 40.7
11:45 1009 29.8 838 24.75 6 42.8 92 4.8 40.7
11:50 1009 29.8 838 24.75 6 42.7 94 5 41
11:55 1009 29.8 838 24.75 6.1 43 92 4.8 40.7
12:00 1009 29.8 838 24.75 6 42.7 91 4.6 40.3
12:05 1009 29.8 838 24.75 6 42.8 91 4.7 40.5
12:10 1009 29.8 838 24.75 6.7 44.1 89 5.1 41.2
12:15 1009 29.8 838 24.75 7.1 44.7 86 4.9 40.9
12:20 1009 29.8 838 24.75 6.9 44.5 86 4.7 40.5
12:25 1009 29.8 838 24.75 7.4 45.4 86 5.3 41.5
12:30 1009 29.8 838 24.75 8.4 47.1 82 5.5 41.8
12:35 1008 29.77 838 24.75 9.3 48.8 76 5.4 41.8
12:40 1008 29.77 838 24.75 9.1 48.4 75 5 41
12:45 1008 29.77 838 24.75 9.4 48.9 74 5 41
12:50 1008 29.77 838 24.75 9.4 48.9 74 5 41
12:55 1008 29.77 838 24.75 8.7 47.7 76 4.7 40.4
13:00 1008 29.77 838 24.75 8.4 47.1 77 4.6 40.2
13:05 1008 29.77 838 24.75 8.5 47.2 73 3.9 39.1
13:10 1008 29.77 838 24.75 8.9 48 74 4.4 40
13:15 1008 29.77 838 24.75 8.3 46.9 79 4.8 40.7
13:20 1008 29.77 837 24.72 8.1 46.6 79 4.7 40.5
13:25 1008 29.77 837 24.72 7.9 46.3 79 4.5 40.1
13:30 1008 29.77 837 24.72 8.4 47.1 79 4.9 40.9
13:35 1008 29.77 837 24.72 8.7 47.7 74 4.4 40
13:40 1008 29.77 837 24.72 8.8 47.9 72 4.1 39.4
13:45 1008 29.77 837 24.72 9.1 48.4 69 3.7 38.7
13:50 1008 29.77 837 24.72 8.7 47.6 70 3.6 38.4
13:55 1008 29.77 837 24.72 8.6 47.4 70 3.5 38.3
14:00 1008 29.77 837 24.72 8.3 47 71 3.4 38.1
14:05 1008 29.77 837 24.72 8 46.4 73 3.4 38.1
14:10 1008 29.77 838 24.75 7.8 46.1 72 3.2 37.7
14:15 1009 29.8 838 24.75 7.8 46 77 3.9 39.1
14:20 1009 29.8 838 24.75 5.8 42.5 86 3.6 38.5
14:25 1009 29.8 839 24.78 4.3 39.7 92 3 37.4
14:30 1010 29.83 839 24.78 3.9 39 94 3 37.3
14:35 1010 29.83 839 24.78 3.8 38.8 95 3.1 37.6
14:40 1010 29.83 839 24.78 3.9 39.1 96 3.3 38
14:45 1010 29.83 839 24.78 4 39.1 96 3.4 38.1
14:50 1010 29.83 839 24.78 4 39.3 96 3.5 38.2
14:55 1010 29.83 839 24.78 4.1 39.4 96 3.5 38.3
15:00 1010 29.83 839 24.78 4.2 39.6 95 3.5 38.4
15:05 1010 29.83 839 24.78 4.3 39.8 95 3.7 38.6
15:10 1010 29.83 839 24.78 4.3 39.7 95 3.6 38.4
15:15 1010 29.83 839 24.78 3.9 39 96 3.3 38
15:20 1010 29.83 839 24.78 3.4 38.1 98 3.1 37.5
15:25 1010 29.83 839 24.78 3.3 37.9 99 3.1 37.6
15:30 1009 29.8 839 24.78 3.6 38.5 98 3.3 38
15:35 1009 29.8 839 24.78 4 39.3 99 3.8 38.9
15:40 1009 29.8 839 24.78 4.9 40.8 97 4.5 40
15:45 1009 29.8 839 24.78 5.5 41.9 96 4.9 40.9
15:50 1009 29.8 839 24.78 5.6 42 96 5 41
15:55 1009 29.8 839 24.78 5.6 42.1 94 4.7 40.5
16:00 1009 29.8 839 24.78 5.9 42.7 93 4.9 40.9
16:05 1009 29.8 839 24.78 6.4 43.6 92 5.2 41.3
16:10 1009 29.8 838 24.75 6.7 44 88 4.8 40.6
16:15 1009 29.8 838 24.75 6.9 44.4 88 5 40.9
16:20 1009 29.8 838 24.75 7.1 44.8 85 4.8 40.6
16:25 1009 29.8 838 24.75 7.6 45.7 83 4.9 40.8
16:30 1009 29.8 838 24.75 7.9 46.3 80 4.7 40.4
16:35 1009 29.8 838 24.75 7.9 46.2 80 4.7 40.5
16:40 1009 29.8 839 24.78 8.1 46.5 78 4.4 39.9
16:45 1010 29.83 839 24.78 8.1 46.6 77 4.4 39.8
16:50 1010 29.83 839 24.78 7.5 45.4 80 4.2 39.6
16:55 1010 29.83 839 24.78 7.1 44.8 82 4.2 39.6
17:00 1009 29.8 839 24.78 7.3 45.1 79 3.9 39.1
17:05 1009 29.8 839 24.78 7.6 45.6 82 4.7 40.4
17:10 1010 29.83 839 24.78 8.1 46.6 81 5.1 41.1
17:15 1010 29.83 839 24.78 8.4 47.1 77 4.6 40.3
17:20 1010 29.83 839 24.78 8.3 46.9 79 4.9 40.8
17:25 1010 29.83 839 24.78 8.6 47.4 79 5.1 41.3
17:30 1010 29.83 839 24.78 8.4 47.1 78 4.9 40.8
17:35 1010 29.83 839 24.78 8.7 47.6 76 4.8 40.6
17:40 1010 29.83 839 24.78 8.9 48 73 4.3 39.8
17:45 1010 29.83 839 24.78 8.7 47.6 71 3.7 38.6
17:50 1010 29.83 839 24.78 8.8 47.8 70 3.6 38.5
17:55 1010 29.83 839 24.78 8.8 47.9 70 3.7 38.7
18:00 1010 29.83 839 24.78 9.2 48.5 66 3.2 37.8
18:05 1010 29.83 839 24.78 9.3 48.8 65 3 37.5
18:10 1010 29.83 839 24.78 9.3 48.7 66 3.2 37.8
18:15 1010 29.83 839 24.78 9.7 49.4 64 3.2 37.7
18:20 1010 29.83 839 24.78 10.2 50.4 63 3.6 38.4
18:25 1010 29.83 839 24.78 11.5 52.7 57 3.3 38
18:30 1010 29.83 839 24.78 12.1 53.7 54 3 37.4
18:35 1010 29.83 839 24.78 11.5 52.8 54 2.6 36.7
18:40 1010 29.83 839 24.78 10.8 51.4 53 1.6 34.9
18:45 1010 29.83 839 24.78 11.1 52 53 1.9 35.5
18:50 1010 29.83 839 24.78 10.9 51.6 54 1.9 35.4
18:55 1010 29.83 839 24.78 11.3 52.3 54 2.5 36.5
19:00 1010 29.83 839 24.78 11.6 52.9 49 1.4 34.5
19:05 1010 29.83 839 24.78 11.6 53 49 1.2 34.2
19:10 1010 29.83 839 24.78 11.8 53.2 48 1.2 34.2
19:15 1010 29.83 839 24.78 11.4 52.5 50 1.5 34.7
19:20 1010 29.83 839 24.78 11.4 52.4 48 0.8 33.4
19:25 1010 29.83 839 24.78 11.4 52.6 44 -0.5 31.1
19:30 1010 29.83 839 24.78 11.3 52.4 45 -0 32
19:35 1010 29.83 839 24.78 11.4 52.5 44 -0.2 31.6
19:40 1010 29.83 839 24.78 11.4 52.5 43 -0.8 30.5
19:45 1010 29.83 839 24.78 11.3 52.4 42 -1.1 30.1
19:50 1010 29.83 839 24.78 11.3 52.3 42 -1.2 29.9
19:55 1010 29.83 839 24.78 11.2 52.1 42 -1.2 29.8
20:00 1010 29.83 839 24.78 11.1 51.9 42 -1.4 29.4
20:05 1010 29.83 839 24.78 10.9 51.6 43 -1.2 29.9
20:10 1010 29.83 839 24.78 10.9 51.6 43 -1.2 29.8
20:15 1010 29.83 839 24.78 10.9 51.5 43 -1 30.1
20:20 1010 29.83 840 24.81 10.8 51.4 43 -1.2 29.8
20:25 1010 29.83 840 24.81 10.6 51.1 45 -0.9 30.3
20:30 1010 29.83 840 24.81 10.5 50.8 44 -1.3 29.6
20:35 1010 29.83 840 24.81 10.3 50.5 45 -1.2 29.9
20:40 1011 29.85 840 24.81 10.2 50.3 46 -0.8 30.5
20:45 1011 29.85 840 24.81 10.1 50.1 46 -0.9 30.4
20:50 1011 29.85 840 24.81 10 49.9 45 -1.4 29.4
20:55 1011 29.85 840 24.81 9.8 49.7 45 -1.4 29.4
21:00 1011 29.85 840 24.81 9.7 49.4 46 -1.3 29.6
21:05 1011 29.85 840 24.81 9.5 49 47 -1.3 29.7
21:10 1011 29.85 840 24.81 9.2 48.5 48 -1.2 29.9
21:15 1011 29.85 840 24.81 8.8 47.9 51 -0.7 30.8
21:20 1011 29.85 841 24.83 8.6 47.5 50 -1.1 30.1
21:25 1011 29.85 841 24.83 8.6 47.5 51 -0.9 30.3
21:30 1011 29.85 841 24.83 8.5 47.3 51 -1 30.2
21:35 1011 29.85 841 24.83 8.4 47.1 55 -0.1 31.9
21:40 1011 29.85 841 24.83 8.3 47 57 0.2 32.4
21:45 1012 29.88 841 24.83 8.2 46.7 55 -0.2 31.6
21:50 1012 29.88 841 24.83 8.2 46.7 54 -0.5 31
21:55 1012 29.88 841 24.83 8 46.5 54 -0.8 30.6
22:00 1012 29.88 841 24.83 8 46.4 51 -1.4 29.5
22:05 1012 29.88 841 24.83 7.9 46.3 51 -1.4 29.4
22:10 1012 29.88 841 24.83 7.8 46.1 50 -1.8 28.7
22:15 1012 29.88 841 24.83 7.8 46.1 49 -2.3 27.9
22:20 1012 29.88 841 24.83 7.8 46.1 49 -2.3 27.9
22:25 1012 29.88 841 24.83 7.8 46 48 -2.5 27.6
22:30 1012 29.88 841 24.83 7.8 46 49 -2.2 28.1
22:35 1012 29.88 842 24.86 7.6 45.6 51 -1.8 28.7
22:40 1012 29.88 842 24.86 7.3 45.2 53 -1.7 29
22:45 1012 29.88 842 24.86 7.1 44.7 54 -1.6 29.1
22:50 1013 29.91 842 24.86 6.9 44.5 55 -1.6 29.1
22:55 1013 29.91 842 24.86 6.6 44 56 -1.5 29.4
23:00 1012 29.88 842 24.86 6.4 43.6 57 -1.5 29.3
23:05 1013 29.91 842 24.86 6.2 43.1 59 -1.2 29.9
23:10 1013 29.91 842 24.86 5.7 42.2 61 -1.3 29.7
23:15 1013 29.91 842 24.86 5.4 41.7 64 -1 30.3
23:20 1013 29.91 842 24.86 5.1 41.2 64 -1.1 29.9
23:25 1013 29.91 842 24.86 5.1 41.2 63 -1.3 29.7
23:30 1013 29.91 842 24.86 5.3 41.5 62 -1.4 29.4
23:35 1013 29.91 842 24.86 5.5 41.9 60 -1.6 29.2
23:40 1013 29.91 842 24.86 5.5 41.9 61 -1.5 29.3
23:45 1013 29.91 842 24.86 5.5 42 60 -1.7 29
23:50 1013 29.91 842 24.86 5.7 42.2 59 -1.8 28.8
23:55 1013 29.91 842 24.86 5.7 42.3 58 -1.8 28.8
24:00 1013 29.91 842 24.86 5.6 42.1 59 -1.7 28.9